sensor_id;sensor_type;location;lat;lon;timestamp;temperature;humidity
68813;DHT22;55808;48.112;11.552;2023-04-25T00:01:17;7.60;99.90
68813;DHT22;55808;48.112;11.552;2023-04-25T00:03:42;7.80;99.90
68813;DHT22;55808;48.112;11.552;2023-04-25T00:06:08;7.60;99.90
68813;DHT22;55808;48.112;11.552;2023-04-25T00:08:33;7.60;99.90
68813;DHT22;55808;48.112;11.552;2023-04-25T00:11:00;7.60;99.90
68813;DHT22;55808;48.112;11.552;2023-04-25T00:13:25;7.60;99.90
68813;DHT22;55808;48.112;11.552;2023-04-25T00:15:51;7.70;99.90
68813;DHT22;55808;48.112;11.552;2023-04-25T00:18:18;7.70;99.90
68813;DHT22;55808;48.112;11.552;2023-04-25T00:20:44;8.50;99.90
68813;DHT22;55808;48.112;11.552;2023-04-25T00:23:09;7.70;99.90
68813;DHT22;55808;48.112;11.552;2023-04-25T00:25:35;7.70;99.90
68813;DHT22;55808;48.112;11.552;2023-04-25T00:28:01;8.40;99.90
68813;DHT22;55808;48.112;11.552;2023-04-25T00:30:26;7.70;99.90
68813;DHT22;55808;48.112;11.552;2023-04-25T00:32:52;7.80;99.90
68813;DHT22;55808;48.112;11.552;2023-04-25T00:35:18;7.90;99.90
68813;DHT22;55808;48.112;11.552;2023-04-25T00:37:44;7.80;99.90
68813;DHT22;55808;48.112;11.552;2023-04-25T00:40:10;7.70;99.90
68813;DHT22;55808;48.112;11.552;2023-04-25T00:42:35;7.60;99.90
68813;DHT22;55808;48.112;11.552;2023-04-25T00:45:02;7.90;99.90
68813;DHT22;55808;48.112;11.552;2023-04-25T00:47:29;7.60;99.90
68813;DHT22;55808;48.112;11.552;2023-04-25T00:49:55;7.50;99.90
68813;DHT22;55808;48.112;11.552;2023-04-25T00:52:20;7.80;99.90
68813;DHT22;55808;48.112;11.552;2023-04-25T00:54:46;7.60;99.90
68813;DHT22;55808;48.112;11.552;2023-04-25T00:57:11;8.30;99.90
68813;DHT22;55808;48.112;11.552;2023-04-25T00:59:37;7.50;99.90
68813;DHT22;55808;48.112;11.552;2023-04-25T01:02:03;8.10;99.90
68813;DHT22;55808;48.112;11.552;2023-04-25T01:04:29;8.10;99.90
68813;DHT22;55808;48.112;11.552;2023-04-25T01:06:54;7.70;99.90
68813;DHT22;55808;48.112;11.552;2023-04-25T01:09:20;7.60;99.90
68813;DHT22;55808;48.112;11.552;2023-04-25T01:11:47;7.40;99.90
68813;DHT22;55808;48.112;11.552;2023-04-25T01:14:12;7.40;99.90
68813;DHT22;55808;48.112;11.552;2023-04-25T01:16:38;7.30;99.90
68813;DHT22;55808;48.112;11.552;2023-04-25T01:19:06;7.30;99.90
68813;DHT22;55808;48.112;11.552;2023-04-25T01:21:33;7.40;99.90
68813;DHT22;55808;48.112;11.552;2023-04-25T01:23:59;7.40;99.90
68813;DHT22;55808;48.112;11.552;2023-04-25T01:26:25;9.50;99.90
68813;DHT22;55808;48.112;11.552;2023-04-25T01:28:50;7.40;99.90
68813;DHT22;55808;48.112;11.552;2023-04-25T01:31:16;7.50;99.90
68813;DHT22;55808;48.112;11.552;2023-04-25T01:33:42;7.40;99.90
68813;DHT22;55808;48.112;11.552;2023-04-25T01:36:07;8.20;99.90
68813;DHT22;55808;48.112;11.552;2023-04-25T01:38:33;7.30;99.90
68813;DHT22;55808;48.112;11.552;2023-04-25T01:40:58;7.50;99.90
68813;DHT22;55808;48.112;11.552;2023-04-25T01:43:24;7.40;99.90
68813;DHT22;55808;48.112;11.552;2023-04-25T01:45:50;7.70;99.90
68813;DHT22;55808;48.112;11.552;2023-04-25T01:48:18;7.20;99.90
68813;DHT22;55808;48.112;11.552;2023-04-25T01:50:44;7.10;99.90
68813;DHT22;55808;48.112;11.552;2023-04-25T01:53:10;7.80;99.90
68813;DHT22;55808;48.112;11.552;2023-04-25T01:55:37;7.10;99.90
68813;DHT22;55808;48.112;11.552;2023-04-25T01:58:02;7.00;99.90
68813;DHT22;55808;48.112;11.552;2023-04-25T02:00:28;7.00;99.90
68813;DHT22;55808;48.112;11.552;2023-04-25T02:02:57;7.00;99.90
68813;DHT22;55808;48.112;11.552;2023-04-25T02:05:23;6.90;99.90
68813;DHT22;55808;48.112;11.552;2023-04-25T02:07:48;6.90;99.90
68813;DHT22;55808;48.112;11.552;2023-04-25T02:10:14;7.00;99.90
68813;DHT22;55808;48.112;11.552;2023-04-25T02:12:40;7.00;99.90
68813;DHT22;55808;48.112;11.552;2023-04-25T02:15:05;6.90;99.90
68813;DHT22;55808;48.112;11.552;2023-04-25T02:17:31;6.90;99.90
68813;DHT22;55808;48.112;11.552;2023-04-25T02:19:57;6.90;99.90
68813;DHT22;55808;48.112;11.552;2023-04-25T02:22:22;6.90;99.90
68813;DHT22;55808;48.112;11.552;2023-04-25T02:24:48;6.90;99.90
68813;DHT22;55808;48.112;11.552;2023-04-25T02:27:13;6.90;99.90
68813;DHT22;55808;48.112;11.552;2023-04-25T02:29:38;7.40;99.90
68813;DHT22;55808;48.112;11.552;2023-04-25T02:32:04;6.90;99.90
68813;DHT22;55808;48.112;11.552;2023-04-25T02:34:30;7.20;99.90
68813;DHT22;55808;48.112;11.552;2023-04-25T02:36:55;6.90;99.90
68813;DHT22;55808;48.112;11.552;2023-04-25T02:39:21;7.60;99.90
68813;DHT22;55808;48.112;11.552;2023-04-25T02:41:47;7.80;99.90
68813;DHT22;55808;48.112;11.552;2023-04-25T02:44:12;6.90;99.90
68813;DHT22;55808;48.112;11.552;2023-04-25T02:46:38;6.90;99.90
68813;DHT22;55808;48.112;11.552;2023-04-25T02:49:03;7.00;99.90
68813;DHT22;55808;48.112;11.552;2023-04-25T02:51:30;7.20;99.90
68813;DHT22;55808;48.112;11.552;2023-04-25T02:53:55;7.40;99.90
68813;DHT22;55808;48.112;11.552;2023-04-25T02:56:21;7.10;99.90
68813;DHT22;55808;48.112;11.552;2023-04-25T02:58:46;7.20;99.90
68813;DHT22;55808;48.112;11.552;2023-04-25T03:01:12;7.10;99.90
68813;DHT22;55808;48.112;11.552;2023-04-25T03:03:37;7.20;99.90
68813;DHT22;55808;48.112;11.552;2023-04-25T03:06:03;7.20;99.90
68813;DHT22;55808;48.112;11.552;2023-04-25T03:08:28;7.20;99.90
68813;DHT22;55808;48.112;11.552;2023-04-25T03:10:58;7.20;99.90
68813;DHT22;55808;48.112;11.552;2023-04-25T03:13:23;7.00;99.90
68813;DHT22;55808;48.112;11.552;2023-04-25T03:15:49;7.50;99.90
68813;DHT22;55808;48.112;11.552;2023-04-25T03:18:15;7.50;99.90
68813;DHT22;55808;48.112;11.552;2023-04-25T03:20:40;6.60;99.90
68813;DHT22;55808;48.112;11.552;2023-04-25T03:23:07;6.60;99.90
68813;DHT22;55808;48.112;11.552;2023-04-25T03:25:32;6.60;99.90
68813;DHT22;55808;48.112;11.552;2023-04-25T03:27:58;6.70;99.90
68813;DHT22;55808;48.112;11.552;2023-04-25T03:30:23;6.50;99.90
68813;DHT22;55808;48.112;11.552;2023-04-25T03:32:49;6.60;99.90
68813;DHT22;55808;48.112;11.552;2023-04-25T03:35:14;6.90;99.90
68813;DHT22;55808;48.112;11.552;2023-04-25T03:37:40;6.60;99.90
68813;DHT22;55808;48.112;11.552;2023-04-25T03:40:06;6.50;99.90
68813;DHT22;55808;48.112;11.552;2023-04-25T03:42:31;6.60;99.90
68813;DHT22;55808;48.112;11.552;2023-04-25T03:44:57;6.50;99.90
68813;DHT22;55808;48.112;11.552;2023-04-25T03:47:22;6.40;99.90
68813;DHT22;55808;48.112;11.552;2023-04-25T03:49:48;6.30;99.90
68813;DHT22;55808;48.112;11.552;2023-04-25T03:52:14;6.40;99.90
68813;DHT22;55808;48.112;11.552;2023-04-25T03:54:40;6.30;99.90
68813;DHT22;55808;48.112;11.552;2023-04-25T03:57:05;6.20;99.90
68813;DHT22;55808;48.112;11.552;2023-04-25T03:59:31;6.90;99.90
68813;DHT22;55808;48.112;11.552;2023-04-25T04:01:56;6.40;99.90
68813;DHT22;55808;48.112;11.552;2023-04-25T04:04:22;6.10;99.90
68813;DHT22;55808;48.112;11.552;2023-04-25T04:06:47;6.20;99.90
68813;DHT22;55808;48.112;11.552;2023-04-25T04:09:13;6.20;99.90
68813;DHT22;55808;48.112;11.552;2023-04-25T04:11:38;6.30;99.90
68813;DHT22;55808;48.112;11.552;2023-04-25T04:14:05;6.20;99.90
68813;DHT22;55808;48.112;11.552;2023-04-25T04:16:30;6.70;99.90
68813;DHT22;55808;48.112;11.552;2023-04-25T04:18:56;6.10;99.90
68813;DHT22;55808;48.112;11.552;2023-04-25T04:21:22;6.10;99.90
68813;DHT22;55808;48.112;11.552;2023-04-25T04:23:47;6.60;99.90
68813;DHT22;55808;48.112;11.552;2023-04-25T04:26:13;6.20;99.90
68813;DHT22;55808;48.112;11.552;2023-04-25T04:28:40;6.20;99.90
68813;DHT22;55808;48.112;11.552;2023-04-25T04:31:06;6.10;99.90
68813;DHT22;55808;48.112;11.552;2023-04-25T04:33:32;6.10;99.90
68813;DHT22;55808;48.112;11.552;2023-04-25T04:35:58;6.10;99.90
68813;DHT22;55808;48.112;11.552;2023-04-25T04:38:24;6.90;99.90
68813;DHT22;55808;48.112;11.552;2023-04-25T04:40:50;6.20;99.90
68813;DHT22;55808;48.112;11.552;2023-04-25T04:43:17;6.10;99.90
68813;DHT22;55808;48.112;11.552;2023-04-25T04:45:44;6.20;99.90
68813;DHT22;55808;48.112;11.552;2023-04-25T04:48:10;6.20;99.90
68813;DHT22;55808;48.112;11.552;2023-04-25T04:50:37;6.00;99.90
68813;DHT22;55808;48.112;11.552;2023-04-25T04:53:03;6.00;99.90
68813;DHT22;55808;48.112;11.552;2023-04-25T04:55:31;6.30;99.90
68813;DHT22;55808;48.112;11.552;2023-04-25T04:57:57;6.00;99.90
68813;DHT22;55808;48.112;11.552;2023-04-25T05:00:22;6.10;99.90
68813;DHT22;55808;48.112;11.552;2023-04-25T05:02:48;6.10;99.90
68813;DHT22;55808;48.112;11.552;2023-04-25T05:05:13;6.90;99.90
68813;DHT22;55808;48.112;11.552;2023-04-25T05:07:39;6.90;99.90
68813;DHT22;55808;48.112;11.552;2023-04-25T05:10:04;6.20;99.90
68813;DHT22;55808;48.112;11.552;2023-04-25T05:12:30;6.20;99.90
68813;DHT22;55808;48.112;11.552;2023-04-25T05:14:56;6.30;99.90
68813;DHT22;55808;48.112;11.552;2023-04-25T05:17:21;6.30;99.90
68813;DHT22;55808;48.112;11.552;2023-04-25T05:19:47;6.60;99.90
68813;DHT22;55808;48.112;11.552;2023-04-25T05:22:12;6.40;99.90
68813;DHT22;55808;48.112;11.552;2023-04-25T05:24:38;7.10;99.90
68813;DHT22;55808;48.112;11.552;2023-04-25T05:27:03;6.30;99.90
68813;DHT22;55808;48.112;11.552;2023-04-25T05:29:29;6.80;99.90
68813;DHT22;55808;48.112;11.552;2023-04-25T05:31:54;6.20;99.90
68813;DHT22;55808;48.112;11.552;2023-04-25T05:34:20;6.20;99.90
68813;DHT22;55808;48.112;11.552;2023-04-25T05:36:45;6.20;99.90
68813;DHT22;55808;48.112;11.552;2023-04-25T05:39:14;6.00;99.90
68813;DHT22;55808;48.112;11.552;2023-04-25T05:41:39;6.10;99.90
68813;DHT22;55808;48.112;11.552;2023-04-25T05:44:05;6.20;99.90
68813;DHT22;55808;48.112;11.552;2023-04-25T05:46:30;7.00;99.90
68813;DHT22;55808;48.112;11.552;2023-04-25T05:48:56;6.30;99.90
68813;DHT22;55808;48.112;11.552;2023-04-25T05:51:21;6.30;99.90
68813;DHT22;55808;48.112;11.552;2023-04-25T05:53:47;6.30;99.90
68813;DHT22;55808;48.112;11.552;2023-04-25T05:56:13;6.30;99.90
68813;DHT22;55808;48.112;11.552;2023-04-25T05:58:38;7.40;99.90
68813;DHT22;55808;48.112;11.552;2023-04-25T06:01:04;6.30;99.90
68813;DHT22;55808;48.112;11.552;2023-04-25T06:03:30;5.90;99.90
68813;DHT22;55808;48.112;11.552;2023-04-25T06:05:55;6.30;99.90
68813;DHT22;55808;48.112;11.552;2023-04-25T06:08:21;6.10;99.90
68813;DHT22;55808;48.112;11.552;2023-04-25T06:10:47;5.30;99.90
68813;DHT22;55808;48.112;11.552;2023-04-25T06:13:12;5.00;99.90
68813;DHT22;55808;48.112;11.552;2023-04-25T06:15:38;5.40;99.90
68813;DHT22;55808;48.112;11.552;2023-04-25T06:18:03;4.70;99.90
68813;DHT22;55808;48.112;11.552;2023-04-25T06:20:29;4.50;99.90
68813;DHT22;55808;48.112;11.552;2023-04-25T06:22:54;4.60;99.90
68813;DHT22;55808;48.112;11.552;2023-04-25T06:25:20;4.80;99.90
68813;DHT22;55808;48.112;11.552;2023-04-25T06:27:45;4.70;99.90
68813;DHT22;55808;48.112;11.552;2023-04-25T06:30:11;4.70;99.90
68813;DHT22;55808;48.112;11.552;2023-04-25T06:32:37;4.70;99.90
68813;DHT22;55808;48.112;11.552;2023-04-25T06:35:03;4.70;99.90
68813;DHT22;55808;48.112;11.552;2023-04-25T06:37:29;4.80;99.90
68813;DHT22;55808;48.112;11.552;2023-04-25T06:39:54;5.00;99.90
68813;DHT22;55808;48.112;11.552;2023-04-25T06:42:20;5.00;99.90
68813;DHT22;55808;48.112;11.552;2023-04-25T06:44:45;5.40;99.90
68813;DHT22;55808;48.112;11.552;2023-04-25T06:47:11;5.00;99.90
68813;DHT22;55808;48.112;11.552;2023-04-25T06:49:36;5.20;99.90
68813;DHT22;55808;48.112;11.552;2023-04-25T06:52:02;5.40;99.90
68813;DHT22;55808;48.112;11.552;2023-04-25T06:54:28;5.60;99.90
68813;DHT22;55808;48.112;11.552;2023-04-25T06:56:55;5.70;99.90
68813;DHT22;55808;48.112;11.552;2023-04-25T06:59:21;6.60;99.90
68813;DHT22;55808;48.112;11.552;2023-04-25T07:01:46;5.70;99.90
68813;DHT22;55808;48.112;11.552;2023-04-25T07:04:12;5.60;99.90
68813;DHT22;55808;48.112;11.552;2023-04-25T07:06:37;6.40;99.90
68813;DHT22;55808;48.112;11.552;2023-04-25T07:09:08;5.60;99.90
68813;DHT22;55808;48.112;11.552;2023-04-25T07:11:34;5.60;99.90
68813;DHT22;55808;48.112;11.552;2023-04-25T07:13:59;5.80;99.90
68813;DHT22;55808;48.112;11.552;2023-04-25T07:16:25;5.60;99.90
68813;DHT22;55808;48.112;11.552;2023-04-25T07:18:50;5.70;99.90
68813;DHT22;55808;48.112;11.552;2023-04-25T07:21:16;5.80;99.90
68813;DHT22;55808;48.112;11.552;2023-04-25T07:23:41;5.80;99.90
68813;DHT22;55808;48.112;11.552;2023-04-25T07:26:07;5.90;99.90
68813;DHT22;55808;48.112;11.552;2023-04-25T07:28:33;5.90;99.90
68813;DHT22;55808;48.112;11.552;2023-04-25T07:30:58;6.10;99.90
68813;DHT22;55808;48.112;11.552;2023-04-25T07:33:24;6.40;99.90
68813;DHT22;55808;48.112;11.552;2023-04-25T07:35:49;6.10;99.90
68813;DHT22;55808;48.112;11.552;2023-04-25T07:38:15;6.10;99.90
68813;DHT22;55808;48.112;11.552;2023-04-25T07:40:40;6.80;99.90
68813;DHT22;55808;48.112;11.552;2023-04-25T07:43:06;7.20;99.90
68813;DHT22;55808;48.112;11.552;2023-04-25T07:45:32;6.00;99.90
68813;DHT22;55808;48.112;11.552;2023-04-25T07:47:57;6.00;99.90
68813;DHT22;55808;48.112;11.552;2023-04-25T07:50:23;6.10;99.90
68813;DHT22;55808;48.112;11.552;2023-04-25T07:52:48;6.10;99.90
68813;DHT22;55808;48.112;11.552;2023-04-25T07:55:14;6.30;99.90
68813;DHT22;55808;48.112;11.552;2023-04-25T07:57:40;6.50;99.90
68813;DHT22;55808;48.112;11.552;2023-04-25T08:00:06;6.60;99.90
68813;DHT22;55808;48.112;11.552;2023-04-25T08:02:34;6.60;99.90
68813;DHT22;55808;48.112;11.552;2023-04-25T08:05:00;6.70;99.90
68813;DHT22;55808;48.112;11.552;2023-04-25T08:07:26;7.60;99.90
68813;DHT22;55808;48.112;11.552;2023-04-25T08:09:51;7.20;99.90
68813;DHT22;55808;48.112;11.552;2023-04-25T08:12:17;7.30;99.90
68813;DHT22;55808;48.112;11.552;2023-04-25T08:14:43;7.30;99.90
68813;DHT22;55808;48.112;11.552;2023-04-25T08:17:09;7.30;99.90
68813;DHT22;55808;48.112;11.552;2023-04-25T08:19:34;8.10;99.90
68813;DHT22;55808;48.112;11.552;2023-04-25T08:22:00;7.90;99.90
68813;DHT22;55808;48.112;11.552;2023-04-25T08:24:26;7.90;99.90
68813;DHT22;55808;48.112;11.552;2023-04-25T08:26:51;8.00;99.90
68813;DHT22;55808;48.112;11.552;2023-04-25T08:29:17;8.00;99.90
68813;DHT22;55808;48.112;11.552;2023-04-25T08:31:42;8.20;99.90
68813;DHT22;55808;48.112;11.552;2023-04-25T08:34:08;8.30;99.90
68813;DHT22;55808;48.112;11.552;2023-04-25T08:36:33;8.40;99.90
68813;DHT22;55808;48.112;11.552;2023-04-25T08:38:59;8.50;99.90
68813;DHT22;55808;48.112;11.552;2023-04-25T08:41:25;8.30;99.90
68813;DHT22;55808;48.112;11.552;2023-04-25T08:43:51;8.20;99.90
68813;DHT22;55808;48.112;11.552;2023-04-25T08:46:18;8.10;99.90
68813;DHT22;55808;48.112;11.552;2023-04-25T08:48:45;8.20;99.90
68813;DHT22;55808;48.112;11.552;2023-04-25T08:51:10;8.30;99.90
68813;DHT22;55808;48.112;11.552;2023-04-25T08:53:40;8.80;99.90
68813;DHT22;55808;48.112;11.552;2023-04-25T08:56:08;8.60;99.90
68813;DHT22;55808;48.112;11.552;2023-04-25T08:58:35;8.70;99.90
68813;DHT22;55808;48.112;11.552;2023-04-25T09:01:00;8.40;99.90
68813;DHT22;55808;48.112;11.552;2023-04-25T09:03:26;8.40;99.90
68813;DHT22;55808;48.112;11.552;2023-04-25T09:05:52;8.80;99.90
68813;DHT22;55808;48.112;11.552;2023-04-25T09:08:18;9.20;99.90
68813;DHT22;55808;48.112;11.552;2023-04-25T09:10:43;9.10;99.90
68813;DHT22;55808;48.112;11.552;2023-04-25T09:13:10;9.10;99.90
68813;DHT22;55808;48.112;11.552;2023-04-25T09:18:21;9.00;99.90
68813;DHT22;55808;48.112;11.552;2023-04-25T09:20:47;9.10;99.90
68813;DHT22;55808;48.112;11.552;2023-04-25T09:23:14;9.10;99.90
68813;DHT22;55808;48.112;11.552;2023-04-25T09:25:40;9.30;99.90
68813;DHT22;55808;48.112;11.552;2023-04-25T09:28:05;9.30;99.90
68813;DHT22;55808;48.112;11.552;2023-04-25T09:30:35;9.50;99.90
68813;DHT22;55808;48.112;11.552;2023-04-25T09:33:04;9.90;99.90
68813;DHT22;55808;48.112;11.552;2023-04-25T09:35:34;9.80;99.50
68813;DHT22;55808;48.112;11.552;2023-04-25T09:38:00;9.90;99.10
68813;DHT22;55808;48.112;11.552;2023-04-25T09:40:26;9.80;99.80
68813;DHT22;55808;48.112;11.552;2023-04-25T09:42:51;9.80;99.20
68813;DHT22;55808;48.112;11.552;2023-04-25T09:45:17;9.80;99.90
68813;DHT22;55808;48.112;11.552;2023-04-25T09:47:42;9.80;98.30
68813;DHT22;55808;48.112;11.552;2023-04-25T09:50:15;10.00;97.50
68813;DHT22;55808;48.112;11.552;2023-04-25T09:52:41;9.80;97.20
68813;DHT22;55808;48.112;11.552;2023-04-25T09:55:07;9.70;97.40
68813;DHT22;55808;48.112;11.552;2023-04-25T09:57:32;9.70;99.10
68813;DHT22;55808;48.112;11.552;2023-04-25T09:59:58;9.80;97.20
68813;DHT22;55808;48.112;11.552;2023-04-25T10:02:26;9.90;97.10
68813;DHT22;55808;48.112;11.552;2023-04-25T10:04:52;9.70;96.30
68813;DHT22;55808;48.112;11.552;2023-04-25T10:07:23;9.90;96.80
68813;DHT22;55808;48.112;11.552;2023-04-25T10:09:54;9.60;97.20
68813;DHT22;55808;48.112;11.552;2023-04-25T10:12:21;9.60;97.30
68813;DHT22;55808;48.112;11.552;2023-04-25T10:14:47;9.50;98.00
68813;DHT22;55808;48.112;11.552;2023-04-25T10:17:12;9.60;97.80
68813;DHT22;55808;48.112;11.552;2023-04-25T10:19:39;10.00;98.90
68813;DHT22;55808;48.112;11.552;2023-04-25T10:22:08;10.50;97.70
68813;DHT22;55808;48.112;11.552;2023-04-25T10:24:37;11.10;95.20
68813;DHT22;55808;48.112;11.552;2023-04-25T10:27:04;11.60;95.90
68813;DHT22;55808;48.112;11.552;2023-04-25T10:29:29;11.40;93.60
68813;DHT22;55808;48.112;11.552;2023-04-25T10:31:55;11.00;93.90
68813;DHT22;55808;48.112;11.552;2023-04-25T10:34:37;10.70;94.70
68813;DHT22;55808;48.112;11.552;2023-04-25T10:37:04;10.30;93.60
68813;DHT22;55808;48.112;11.552;2023-04-25T10:39:29;10.00;95.40
68813;DHT22;55808;48.112;11.552;2023-04-25T10:41:55;9.60;99.30
68813;DHT22;55808;48.112;11.552;2023-04-25T10:44:21;8.70;99.30
68813;DHT22;55808;48.112;11.552;2023-04-25T10:46:47;8.60;99.30
68813;DHT22;55808;48.112;11.552;2023-04-25T10:52:16;8.30;99.90
68813;DHT22;55808;48.112;11.552;2023-04-25T10:54:57;8.40;99.90
68813;DHT22;55808;48.112;11.552;2023-04-25T10:57:44;8.40;99.90
68813;DHT22;55808;48.112;11.552;2023-04-25T11:00:17;8.00;99.90
68813;DHT22;55808;48.112;11.552;2023-04-25T11:02:44;8.00;99.90
68813;DHT22;55808;48.112;11.552;2023-04-25T11:07:53;8.60;99.90
68813;DHT22;55808;48.112;11.552;2023-04-25T11:10:24;8.70;99.90
68813;DHT22;55808;48.112;11.552;2023-04-25T11:12:50;8.90;99.90
68813;DHT22;55808;48.112;11.552;2023-04-25T11:15:15;9.10;99.90
68813;DHT22;55808;48.112;11.552;2023-04-25T11:17:41;8.90;99.90
68813;DHT22;55808;48.112;11.552;2023-04-25T11:20:08;8.90;99.90
68813;DHT22;55808;48.112;11.552;2023-04-25T11:22:37;8.90;99.90
68813;DHT22;55808;48.112;11.552;2023-04-25T11:25:06;8.90;98.80
68813;DHT22;55808;48.112;11.552;2023-04-25T11:27:32;8.70;99.30
68813;DHT22;55808;48.112;11.552;2023-04-25T11:29:57;8.80;99.50
68813;DHT22;55808;48.112;11.552;2023-04-25T11:32:23;8.80;99.80
68813;DHT22;55808;48.112;11.552;2023-04-25T11:34:48;8.70;99.90
68813;DHT22;55808;48.112;11.552;2023-04-25T11:37:14;8.50;99.90
68813;DHT22;55808;48.112;11.552;2023-04-25T11:39:43;8.40;99.90
68813;DHT22;55808;48.112;11.552;2023-04-25T11:42:09;8.40;99.90
68813;DHT22;55808;48.112;11.552;2023-04-25T11:44:34;8.10;99.90
68813;DHT22;55808;48.112;11.552;2023-04-25T11:47:00;7.70;99.90
68813;DHT22;55808;48.112;11.552;2023-04-25T11:49:30;8.30;99.90
68813;DHT22;55808;48.112;11.552;2023-04-25T11:51:55;7.20;99.90
68813;DHT22;55808;48.112;11.552;2023-04-25T11:54:21;7.20;99.90
68813;DHT22;55808;48.112;11.552;2023-04-25T11:56:47;8.30;99.90
68813;DHT22;55808;48.112;11.552;2023-04-25T11:59:13;7.10;99.90
68813;DHT22;55808;48.112;11.552;2023-04-25T12:01:40;7.10;99.90
68813;DHT22;55808;48.112;11.552;2023-04-25T12:04:13;7.20;99.90
68813;DHT22;55808;48.112;11.552;2023-04-25T12:06:39;7.10;99.90
68813;DHT22;55808;48.112;11.552;2023-04-25T12:09:07;7.00;99.90
68813;DHT22;55808;48.112;11.552;2023-04-25T12:11:33;7.60;99.90
68813;DHT22;55808;48.112;11.552;2023-04-25T12:14:05;7.00;99.90
68813;DHT22;55808;48.112;11.552;2023-04-25T12:16:41;6.80;99.90
68813;DHT22;55808;48.112;11.552;2023-04-25T12:19:08;6.80;99.90
68813;DHT22;55808;48.112;11.552;2023-04-25T12:21:34;6.50;99.90
68813;DHT22;55808;48.112;11.552;2023-04-25T12:24:13;8.30;99.90
68813;DHT22;55808;48.112;11.552;2023-04-25T12:26:53;6.70;99.90
68813;DHT22;55808;48.112;11.552;2023-04-25T12:29:19;6.80;99.90
68813;DHT22;55808;48.112;11.552;2023-04-25T12:31:45;6.70;99.90
68813;DHT22;55808;48.112;11.552;2023-04-25T12:34:10;6.80;99.90
68813;DHT22;55808;48.112;11.552;2023-04-25T12:36:36;7.50;99.90
68813;DHT22;55808;48.112;11.552;2023-04-25T12:39:02;7.50;99.90
68813;DHT22;55808;48.112;11.552;2023-04-25T12:41:29;7.10;99.90
68813;DHT22;55808;48.112;11.552;2023-04-25T12:43:55;6.90;99.90
68813;DHT22;55808;48.112;11.552;2023-04-25T12:46:21;7.00;99.90
68813;DHT22;55808;48.112;11.552;2023-04-25T12:48:48;7.00;99.90
68813;DHT22;55808;48.112;11.552;2023-04-25T12:51:13;7.10;99.90
68813;DHT22;55808;48.112;11.552;2023-04-25T12:53:39;6.80;99.90
68813;DHT22;55808;48.112;11.552;2023-04-25T12:56:06;7.00;99.90
68813;DHT22;55808;48.112;11.552;2023-04-25T12:58:32;6.90;99.90
68813;DHT22;55808;48.112;11.552;2023-04-25T13:00:58;7.00;99.90
68813;DHT22;55808;48.112;11.552;2023-04-25T13:03:24;7.70;99.90
68813;DHT22;55808;48.112;11.552;2023-04-25T13:05:50;7.10;99.90
68813;DHT22;55808;48.112;11.552;2023-04-25T13:08:20;7.00;99.90
68813;DHT22;55808;48.112;11.552;2023-04-25T13:10:47;6.90;99.90
68813;DHT22;55808;48.112;11.552;2023-04-25T13:13:13;6.80;99.90
68813;DHT22;55808;48.112;11.552;2023-04-25T13:15:38;6.80;99.90
68813;DHT22;55808;48.112;11.552;2023-04-25T13:18:04;6.70;99.90
68813;DHT22;55808;48.112;11.552;2023-04-25T13:20:32;6.70;99.90
68813;DHT22;55808;48.112;11.552;2023-04-25T13:22:58;6.80;99.90
68813;DHT22;55808;48.112;11.552;2023-04-25T13:25:24;6.60;99.90
68813;DHT22;55808;48.112;11.552;2023-04-25T13:27:50;6.60;99.90
68813;DHT22;55808;48.112;11.552;2023-04-25T13:30:15;6.60;99.90
68813;DHT22;55808;48.112;11.552;2023-04-25T13:32:41;7.10;99.90
68813;DHT22;55808;48.112;11.552;2023-04-25T13:35:10;6.80;99.90
68813;DHT22;55808;48.112;11.552;2023-04-25T13:37:36;6.80;99.90
68813;DHT22;55808;48.112;11.552;2023-04-25T13:40:03;6.80;99.90
68813;DHT22;55808;48.112;11.552;2023-04-25T13:42:30;6.70;99.90
68813;DHT22;55808;48.112;11.552;2023-04-25T13:44:56;7.90;99.90
68813;DHT22;55808;48.112;11.552;2023-04-25T13:47:21;6.40;99.90
68813;DHT22;55808;48.112;11.552;2023-04-25T13:49:47;6.20;99.90
68813;DHT22;55808;48.112;11.552;2023-04-25T13:52:12;6.10;99.90
68813;DHT22;55808;48.112;11.552;2023-04-25T13:54:38;6.00;99.90
68813;DHT22;55808;48.112;11.552;2023-04-25T13:57:03;5.90;99.90
68813;DHT22;55808;48.112;11.552;2023-04-25T13:59:29;6.00;99.90
68813;DHT22;55808;48.112;11.552;2023-04-25T14:01:55;5.90;99.90
68813;DHT22;55808;48.112;11.552;2023-04-25T14:04:20;6.20;99.90
68813;DHT22;55808;48.112;11.552;2023-04-25T14:06:46;6.00;99.90
68813;DHT22;55808;48.112;11.552;2023-04-25T14:09:11;5.90;99.90
68813;DHT22;55808;48.112;11.552;2023-04-25T14:11:38;5.80;99.90
68813;DHT22;55808;48.112;11.552;2023-04-25T14:14:04;6.00;99.90
68813;DHT22;55808;48.112;11.552;2023-04-25T14:16:29;5.90;99.90
68813;DHT22;55808;48.112;11.552;2023-04-25T14:18:55;6.10;99.90
68813;DHT22;55808;48.112;11.552;2023-04-25T14:21:21;5.90;99.90
68813;DHT22;55808;48.112;11.552;2023-04-25T14:23:47;5.90;99.90
68813;DHT22;55808;48.112;11.552;2023-04-25T14:26:12;5.80;99.90
68813;DHT22;55808;48.112;11.552;2023-04-25T14:28:38;6.40;99.90
68813;DHT22;55808;48.112;11.552;2023-04-25T14:31:04;6.00;99.90
68813;DHT22;55808;48.112;11.552;2023-04-25T14:33:29;6.60;99.90
68813;DHT22;55808;48.112;11.552;2023-04-25T14:35:55;6.70;99.90
68813;DHT22;55808;48.112;11.552;2023-04-25T14:38:21;6.80;99.90
68813;DHT22;55808;48.112;11.552;2023-04-25T14:40:49;6.60;99.90
68813;DHT22;55808;48.112;11.552;2023-04-25T14:43:14;6.50;99.90
68813;DHT22;55808;48.112;11.552;2023-04-25T14:45:40;6.60;99.90
68813;DHT22;55808;48.112;11.552;2023-04-25T14:48:05;6.90;99.90
68813;DHT22;55808;48.112;11.552;2023-04-25T14:50:32;7.00;99.90
68813;DHT22;55808;48.112;11.552;2023-04-25T14:52:57;6.90;99.90
68813;DHT22;55808;48.112;11.552;2023-04-25T14:55:27;6.90;99.90
68813;DHT22;55808;48.112;11.552;2023-04-25T14:57:53;6.80;99.90
68813;DHT22;55808;48.112;11.552;2023-04-25T15:00:19;6.60;99.90
68813;DHT22;55808;48.112;11.552;2023-04-25T15:02:46;6.70;99.90
68813;DHT22;55808;48.112;11.552;2023-04-25T15:05:12;6.60;99.90
68813;DHT22;55808;48.112;11.552;2023-04-25T15:07:38;6.60;99.90
68813;DHT22;55808;48.112;11.552;2023-04-25T15:10:06;6.70;99.90
68813;DHT22;55808;48.112;11.552;2023-04-25T15:12:36;7.20;99.90
68813;DHT22;55808;48.112;11.552;2023-04-25T15:15:02;7.10;99.90
68813;DHT22;55808;48.112;11.552;2023-04-25T15:17:28;6.90;99.90
68813;DHT22;55808;48.112;11.552;2023-04-25T15:19:56;7.30;99.90
68813;DHT22;55808;48.112;11.552;2023-04-25T15:22:21;6.90;99.90
68813;DHT22;55808;48.112;11.552;2023-04-25T15:24:47;6.80;99.90
68813;DHT22;55808;48.112;11.552;2023-04-25T15:27:13;7.10;99.90
68813;DHT22;55808;48.112;11.552;2023-04-25T15:29:38;7.90;99.90
68813;DHT22;55808;48.112;11.552;2023-04-25T15:32:04;7.00;99.90